< < Back
Terminal Aerodrome Forecast


Current Version              Previous Versions:   1  2  3  4  5  6  7  8  9  

Terminal Aerodrome Forecast

605
FTUS42 KCAE 242000 AAA
TAFAGS
TAF AMD
KAGS 242039Z 2421/2518 VRB04KT P6SM BKN200=

Latest METAR

538
SAUS70 KWBC 250300 RRH
MTRAGS
METAR KAGS 250253Z 00000KT 10SM CLR 09/06 A3003 RMK AO2 SLP167 T00890061
51011


USA.gov is the U.S. government's official web portal to all federal, state and local government web resources and services.